Time;durP1;ratioP1;P1;durP2;ratioP2;P2;SDS_P1;SDS_P2;PMS_P1;PMS_P2;Temp;Humidity;BMP_temperature;BMP_pressure;BME280_temperature;BME280_humidity;BME280_pressure;Samples;Min_cycle;Max_cycle;Signal;HPM_P1;HPM_P2
2023/07/02 00:01:49;;;;;;;16.88;9.10;;;;;;;;;;5057334;28;20029;-58
2023/07/02 00:04:19;;;;;;;17.60;9.75;;;;;;;;;;5065553;28;20017;-57
2023/07/02 00:06:46;;;;;;;16.42;8.77;;;;;;;;;;5057030;28;20070;-60
2023/07/02 00:09:12;;;;;;;16.58;8.93;;;;;;;;;;5075159;28;20028;-57
2023/07/02 00:11:42;;;;;;;17.13;9.02;;;;;;;;;;5066388;28;20029;-57
2023/07/02 00:14:09;;;;;;;16.92;9.43;;;;;;;;;;5056459;28;20112;-59
2023/07/02 00:16:35;;;;;;;20.95;9.20;;;;;;;;;;5074415;28;20082;-58
2023/07/02 00:19:01;;;;;;;18.52;8.98;;;;;;;;;;5074120;28;20027;-57
2023/07/02 00:21:28;;;;;;;18.23;8.73;;;;;;;;;;5073926;28;20112;-59
2023/07/02 00:23:56;;;;;;;17.27;8.77;;;;;;;;;;5056484;28;20031;-58
2023/07/02 00:26:22;;;;;;;17.38;9.05;;;;;;;;;;5074246;28;20448;-59
2023/07/02 00:28:48;;;;;;;18.35;8.73;;;;;;;;;;5074445;28;20436;-58
2023/07/02 00:31:14;;;;;;;17.92;9.50;;;;;;;;;;5074773;28;20025;-60
2023/07/02 00:33:40;;;;;;;18.65;10.30;;;;;;;;;;5074677;28;20020;-57
2023/07/02 00:36:06;;;;;;;19.50;9.70;;;;;;;;;;5073222;28;20033;-58
2023/07/02 00:38:32;;;;;;;18.65;9.40;;;;;;;;;;5074917;28;20035;-61
2023/07/02 00:40:58;;;;;;;22.40;10.90;;;;;;;;;;5075151;28;20062;-61
2023/07/02 00:43:24;;;;;;;19.33;10.20;;;;;;;;;;5075199;28;20123;-61
2023/07/02 00:45:50;;;;;;;19.05;9.93;;;;;;;;;;5074875;28;20024;-61
2023/07/02 00:48:16;;;;;;;19.13;9.85;;;;;;;;;;5057151;28;20398;-61
2023/07/02 00:50:42;;;;;;;23.70;11.07;;;;;;;;;;5075411;28;20065;-60
2023/07/02 00:53:08;;;;;;;18.13;9.70;;;;;;;;;;5074615;28;20670;-58
2023/07/02 00:55:34;;;;;;;20.02;10.70;;;;;;;;;;5075677;28;20050;-59
2023/07/02 00:58:01;;;;;;;18.30;10.63;;;;;;;;;;5077458;28;20028;-57
2023/07/02 01:00:28;;;;;;;23.15;11.32;;;;;;;;;;5079629;28;20042;-56
2023/07/02 01:02:58;;;;;;;22.50;11.52;;;;;;;;;;5081371;28;20043;-59
2023/07/02 01:05:25;;;;;;;22.33;11.18;;;;;;;;;;5078387;28;20030;-56
2023/07/02 01:07:51;;;;;;;26.50;11.60;;;;;;;;;;5069542;28;20024;-58
2023/07/02 01:10:17;;;;;;;19.50;12.10;;;;;;;;;;5074797;28;20155;-59
2023/07/02 01:12:43;;;;;;;19.20;11.90;;;;;;;;;;5075349;28;20073;-56
2023/07/02 01:15:09;;;;;;;20.85;12.40;;;;;;;;;;5075484;28;20122;-59
2023/07/02 01:17:41;;;;;;;19.55;11.52;;;;;;;;;;5075885;28;20385;-59
2023/07/02 01:20:08;;;;;;;21.45;11.63;;;;;;;;;;5075259;28;20021;-63
2023/07/02 01:22:34;;;;;;;19.95;12.23;;;;;;;;;;5074844;28;20111;-61
2023/07/02 01:25:00;;;;;;;21.42;10.35;;;;;;;;;;5074362;28;20573;-61
2023/07/02 01:27:29;;;;;;;22.23;11.45;;;;;;;;;;5073919;28;20047;-61
2023/07/02 01:29:56;;;;;;;20.58;12.10;;;;;;;;;;5075136;28;20024;-61
2023/07/02 01:32:22;;;;;;;19.90;11.00;;;;;;;;;;5075267;28;20047;-61
2023/07/02 01:34:48;;;;;;;20.95;12.18;;;;;;;;;;5075377;28;20369;-61
2023/07/02 01:37:15;;;;;;;21.88;11.63;;;;;;;;;;5076174;28;20484;-61
2023/07/02 01:39:41;;;;;;;21.15;12.55;;;;;;;;;;5076797;28;20093;-61
2023/07/02 01:42:14;;;;;;;20.73;10.57;;;;;;;;;;5077352;28;20024;-61
2023/07/02 01:44:40;;;;;;;20.70;11.20;;;;;;;;;;5076271;28;20091;-62
2023/07/02 01:47:06;;;;;;;23.10;13.75;;;;;;;;;;5076318;28;20036;-62
2023/07/02 01:49:32;;;;;;;19.13;10.50;;;;;;;;;;5076772;28;20042;-62
2023/07/02 01:51:58;;;;;;;22.15;11.48;;;;;;;;;;5075336;28;20473;-61
2023/07/02 01:54:26;;;;;;;24.95;11.25;;;;;;;;;;5070718;28;20134;-61
2023/07/02 01:56:53;;;;;;;24.10;11.77;;;;;;;;;;5072461;28;20048;-62
2023/07/02 01:59:19;;;;;;;27.83;12.82;;;;;;;;;;5071563;28;20044;-60
2023/07/02 02:01:45;;;;;;;20.50;11.68;;;;;;;;;;5076129;28;20025;-62
2023/07/02 02:04:11;;;;;;;24.33;12.68;;;;;;;;;;5075860;28;20052;-61
2023/07/02 02:06:37;;;;;;;22.92;11.57;;;;;;;;;;5075214;28;20032;-62
2023/07/02 02:09:04;;;;;;;23.42;12.35;;;;;;;;;;5076274;28;20036;-62
2023/07/02 02:11:30;;;;;;;26.35;12.25;;;;;;;;;;5074499;28;20021;-59
2023/07/02 02:13:57;;;;;;;20.73;11.57;;;;;;;;;;5076000;28;20029;-57
2023/07/02 02:16:23;;;;;;;22.45;11.20;;;;;;;;;;5077657;28;20067;-59
2023/07/02 02:18:52;;;;;;;23.00;11.20;;;;;;;;;;5077552;28;20033;-59
2023/07/02 02:21:19;;;;;;;20.02;9.85;;;;;;;;;;5077596;28;20028;-60
2023/07/02 02:23:45;;;;;;;25.40;12.13;;;;;;;;;;5078001;28;20074;-58
2023/07/02 02:26:11;;;;;;;21.92;10.75;;;;;;;;;;5077460;28;20090;-59
2023/07/02 02:28:37;;;;;;;28.13;13.20;;;;;;;;;;5077756;28;20065;-59
2023/07/02 02:31:03;;;;;;;22.83;11.52;;;;;;;;;;5077680;28;20032;-55
2023/07/02 02:33:29;;;;;;;21.80;11.32;;;;;;;;;;5078224;28;20064;-58
2023/07/02 02:35:55;;;;;;;23.73;10.88;;;;;;;;;;5076957;28;20031;-57
2023/07/02 02:38:21;;;;;;;29.20;11.50;;;;;;;;;;5076951;28;20017;-57
2023/07/02 02:40:47;;;;;;;21.02;11.10;;;;;;;;;;5076129;28;20024;-60
2023/07/02 02:43:13;;;;;;;23.45;10.73;;;;;;;;;;5075675;28;20369;-60
2023/07/02 02:45:39;;;;;;;20.90;10.77;;;;;;;;;;5076595;28;20024;-60
2023/07/02 02:48:05;;;;;;;21.13;10.57;;;;;;;;;;5076933;28;20073;-59
2023/07/02 02:50:32;;;;;;;24.40;11.32;;;;;;;;;;5075896;28;20451;-59
2023/07/02 02:52:58;;;;;;;21.63;10.30;;;;;;;;;;5076751;28;20024;-61
2023/07/02 02:55:24;;;;;;;26.52;12.68;;;;;;;;;;5076326;28;20025;-58
2023/07/02 02:57:50;;;;;;;25.08;11.50;;;;;;;;;;5075124;28;20377;-58
2023/07/02 03:00:16;;;;;;;25.08;11.25;;;;;;;;;;5076794;28;20032;-59
2023/07/02 03:02:43;;;;;;;20.20;9.88;;;;;;;;;;5077333;28;20024;-60
2023/07/02 03:05:09;;;;;;;24.08;12.05;;;;;;;;;;5076423;28;20021;-60
2023/07/02 03:07:35;;;;;;;23.80;15.20;;;;;;;;;;5076902;28;20024;-61
2023/07/02 03:10:01;;;;;;;24.58;16.33;;;;;;;;;;5078785;28;20138;-59
2023/07/02 03:12:27;;;;;;;28.35;16.63;;;;;;;;;;5077385;28;20051;-59
2023/07/02 03:14:55;;;;;;;27.30;15.77;;;;;;;;;;5077662;28;20472;-59
2023/07/02 03:17:24;;;;;;;33.80;30.60;;;;;;;;;;5076770;28;20029;-59
2023/07/02 03:19:50;;;;;;;40.38;36.60;;;;;;;;;;5076076;28;20032;-59
2023/07/02 03:22:16;;;;;;;41.08;37.30;;;;;;;;;;5076591;28;20055;-58
2023/07/02 03:24:42;;;;;;;43.50;39.70;;;;;;;;;;5074822;28;20086;-59
2023/07/02 03:27:08;;;;;;;36.60;34.00;;;;;;;;;;5074928;28;20465;-60
2023/07/02 03:29:35;;;;;;;36.15;33.70;;;;;;;;;;5074723;28;20029;-58
2023/07/02 03:32:01;;;;;;;35.80;33.10;;;;;;;;;;5074963;28;20433;-56
2023/07/02 03:34:27;;;;;;;31.17;28.95;;;;;;;;;;5073937;28;20027;-59
2023/07/02 03:36:53;;;;;;;30.90;28.70;;;;;;;;;;5075740;28;20047;-58
2023/07/02 03:39:19;;;;;;;29.95;27.75;;;;;;;;;;5076206;28;20536;-59
2023/07/02 03:41:45;;;;;;;28.27;26.17;;;;;;;;;;5075359;28;20035;-60
2023/07/02 03:44:11;;;;;;;26.98;24.88;;;;;;;;;;5075384;28;20299;-59
2023/07/02 03:46:37;;;;;;;27.25;25.15;;;;;;;;;;5076436;28;20028;-61
2023/07/02 03:49:03;;;;;;;26.23;24.23;;;;;;;;;;5075854;28;20033;-59
2023/07/02 03:51:30;;;;;;;26.08;24.08;;;;;;;;;;5076335;28;20024;-60
2023/07/02 03:53:56;;;;;;;26.83;24.75;;;;;;;;;;5075793;28;20060;-59
2023/07/02 03:56:22;;;;;;;27.13;25.10;;;;;;;;;;5075717;28;20502;-59
2023/07/02 03:58:48;;;;;;;28.42;26.33;;;;;;;;;;5075214;28;20021;-59
2023/07/02 04:01:14;;;;;;;30.88;28.02;;;;;;;;;;5075538;28;20050;-59
2023/07/02 04:03:41;;;;;;;26.95;24.90;;;;;;;;;;5076053;28;20492;-59
2023/07/02 04:06:07;;;;;;;26.70;24.60;;;;;;;;;;5075806;28;20495;-60
2023/07/02 04:08:34;;;;;;;26.58;24.58;;;;;;;;;;5075840;28;20021;-60
2023/07/02 04:11:00;;;;;;;27.77;25.58;;;;;;;;;;5075990;28;20013;-60
2023/07/02 04:13:26;;;;;;;26.55;24.52;;;;;;;;;;5074969;28;20111;-60
2023/07/02 04:15:52;;;;;;;26.48;24.48;;;;;;;;;;5075696;28;20031;-58
2023/07/02 04:18:18;;;;;;;26.48;24.48;;;;;;;;;;5074025;28;20024;-59
2023/07/02 04:20:44;;;;;;;27.10;25.00;;;;;;;;;;5075820;28;20024;-62
2023/07/02 04:23:10;;;;;;;27.10;25.00;;;;;;;;;;5073707;28;20396;-60
2023/07/02 04:25:36;;;;;;;39.22;35.22;;;;;;;;;;5075882;28;20127;-59
2023/07/02 04:28:02;;;;;;;38.38;34.45;;;;;;;;;;5073803;28;20028;-58
2023/07/02 04:30:28;;;;;;;36.90;33.20;;;;;;;;;;5075323;28;20032;-59
2023/07/02 04:32:54;;;;;;;39.05;34.95;;;;;;;;;;5075891;28;20081;-59
2023/07/02 04:35:20;;;;;;;37.70;33.97;;;;;;;;;;5074101;28;20066;-57
2023/07/02 04:37:46;;;;;;;38.20;33.53;;;;;;;;;;5074626;28;20032;-60
2023/07/02 04:40:12;;;;;;;37.78;32.80;;;;;;;;;;5074631;28;20043;-61
2023/07/02 04:42:39;;;;;;;36.78;32.70;;;;;;;;;;5074541;28;20032;-61
2023/07/02 04:45:05;;;;;;;36.22;32.22;;;;;;;;;;5074130;28;20356;-59
2023/07/02 04:47:31;;;;;;;37.65;31.08;;;;;;;;;;5075074;28;20032;-60
2023/07/02 04:49:57;;;;;;;35.30;29.98;;;;;;;;;;5075762;28;20048;-56
2023/07/02 04:52:23;;;;;;;30.13;21.73;;;;;;;;;;5075839;28;20021;-60
2023/07/02 04:54:49;;;;;;;30.05;18.95;;;;;;;;;;5075850;28;20074;-56
2023/07/02 04:57:15;;;;;;;26.70;18.50;;;;;;;;;;5075670;28;20030;-58
2023/07/02 04:59:42;;;;;;;28.40;16.85;;;;;;;;;;5076291;28;20040;-59
2023/07/02 05:02:08;;;;;;;28.80;17.65;;;;;;;;;;5076155;28;20054;-60
2023/07/02 05:04:34;;;;;;;26.95;17.45;;;;;;;;;;5091169;28;20047;-58
2023/07/02 05:07:00;;;;;;;33.17;17.50;;;;;;;;;;5076037;28;20020;-60
2023/07/02 05:09:26;;;;;;;27.98;16.58;;;;;;;;;;5076505;28;20021;-59
2023/07/02 05:11:52;;;;;;;24.60;15.50;;;;;;;;;;5076359;28;20029;-60
2023/07/02 05:14:18;;;;;;;28.60;14.48;;;;;;;;;;5075645;28;20119;-54
2023/07/02 05:16:44;;;;;;;28.55;13.38;;;;;;;;;;5076478;28;20024;-61
2023/07/02 05:19:10;;;;;;;27.30;13.85;;;;;;;;;;5093002;28;20039;-60
2023/07/02 05:21:36;;;;;;;28.70;14.52;;;;;;;;;;5077045;28;20028;-58
2023/07/02 05:24:02;;;;;;;30.05;14.38;;;;;;;;;;5076381;28;20025;-60
2023/07/02 05:26:28;;;;;;;25.60;13.93;;;;;;;;;;5076721;28;20029;-61
2023/07/02 05:28:54;;;;;;;28.45;13.05;;;;;;;;;;5077055;28;20032;-61
2023/07/02 05:31:20;;;;;;;24.60;13.13;;;;;;;;;;5076687;28;20031;-61
2023/07/02 05:33:46;;;;;;;27.63;13.63;;;;;;;;;;5092619;28;20041;-60
2023/07/02 05:36:12;;;;;;;27.60;12.82;;;;;;;;;;5075164;28;20028;-61
2023/07/02 05:38:38;;;;;;;25.35;13.38;;;;;;;;;;5091142;28;20033;-61
2023/07/02 05:41:04;;;;;;;28.30;13.95;;;;;;;;;;5075193;28;20033;-60
2023/07/02 05:43:30;;;;;;;27.73;13.77;;;;;;;;;;5090353;28;20079;-60
2023/07/02 05:46:00;;;;;;;27.40;14.20;;;;;;;;;;5074442;28;20024;-62
2023/07/02 05:48:26;;;;;;;26.52;12.73;;;;;;;;;;5109719;22;20434;-56
2023/07/02 05:50:52;;;;;;;27.95;14.18;;;;;;;;;;5095305;28;20024;-59
2023/07/02 05:53:18;;;;;;;26.50;13.02;;;;;;;;;;5073854;28;20093;-56
2023/07/02 05:55:44;;;;;;;27.38;12.50;;;;;;;;;;5090995;28;20036;-59
2023/07/02 05:58:10;;;;;;;24.65;12.02;;;;;;;;;;5095336;28;20134;-57
2023/07/02 06:00:36;;;;;;;30.27;12.52;;;;;;;;;;5095981;28;20028;-59
2023/07/02 06:03:03;;;;;;;31.13;13.65;;;;;;;;;;5095488;28;20016;-57
2023/07/02 06:05:29;;;;;;;31.15;13.50;;;;;;;;;;5095315;28;20026;-58
2023/07/02 06:07:55;;;;;;;25.48;13.18;;;;;;;;;;5077346;28;20391;-55
2023/07/02 06:10:21;;;;;;;25.63;13.00;;;;;;;;;;5095511;28;20111;-60
2023/07/02 06:12:47;;;;;;;28.60;13.57;;;;;;;;;;5095461;28;20484;-56
2023/07/02 06:15:13;;;;;;;25.88;12.82;;;;;;;;;;5076894;28;20119;-58
2023/07/02 06:17:39;;;;;;;24.52;13.23;;;;;;;;;;5095208;28;20032;-55
2023/07/02 06:20:05;;;;;;;25.75;12.88;;;;;;;;;;5095270;28;20024;-57
2023/07/02 06:22:31;;;;;;;29.35;13.48;;;;;;;;;;5094834;28;20016;-57
2023/07/02 06:24:57;;;;;;;27.55;12.38;;;;;;;;;;5095060;28;20065;-58
2023/07/02 06:27:23;;;;;;;28.83;13.18;;;;;;;;;;5095160;28;20024;-58
2023/07/02 06:29:50;;;;;;;26.67;12.23;;;;;;;;;;5077159;28;20107;-59
2023/07/02 06:32:16;;;;;;;27.67;12.57;;;;;;;;;;5094805;28;20031;-58
2023/07/02 06:34:42;;;;;;;26.25;11.68;;;;;;;;;;5094561;28;20477;-57
2023/07/02 06:37:08;;;;;;;28.95;12.70;;;;;;;;;;5094790;28;20035;-59
2023/07/02 06:39:34;;;;;;;28.15;12.80;;;;;;;;;;5094745;28;20752;-56
2023/07/02 06:42:00;;;;;;;25.40;12.50;;;;;;;;;;5094655;28;20031;-58
2023/07/02 06:44:26;;;;;;;26.85;12.75;;;;;;;;;;5094258;28;20480;-57
2023/07/02 06:46:52;;;;;;;28.27;12.85;;;;;;;;;;5076275;28;20024;-59
2023/07/02 06:49:18;;;;;;;25.15;12.45;;;;;;;;;;5087156;28;20158;-59
2023/07/02 06:51:44;;;;;;;31.13;13.63;;;;;;;;;;5074131;28;20029;-54
2023/07/02 06:54:13;;;;;;;23.70;13.00;;;;;;;;;;5074037;28;20028;-54
2023/07/02 06:56:39;;;;;;;;;;;;;;;;;;5074483;28;20082;-58
2023/07/02 06:59:05;;;;;;;27.83;13.30;;;;;;;;;;5072901;28;19905;-54
2023/07/02 07:01:30;;;;;;;31.77;12.90;;;;;;;;;;5073755;28;20059;-58
2023/07/02 07:03:56;;;;;;;28.15;13.05;;;;;;;;;;5072273;28;20034;-58
2023/07/02 07:06:22;;;;;;;26.05;12.75;;;;;;;;;;5072490;28;20027;-56
2023/07/02 07:08:48;;;;;;;25.42;12.77;;;;;;;;;;5072698;28;20029;-58
2023/07/02 07:11:14;;;;;;;27.85;13.18;;;;;;;;;;5087849;28;20048;-59
2023/07/02 07:13:41;;;;;;;26.42;11.82;;;;;;;;;;5067326;28;20530;-57
2023/07/02 07:16:07;;;;;;;36.85;15.43;;;;;;;;;;5093756;28;20024;-58
2023/07/02 07:18:33;;;;;;;25.92;13.20;;;;;;;;;;5075633;28;20212;-59
2023/07/02 07:20:59;;;;;;;24.67;12.70;;;;;;;;;;5088722;28;20028;-59
2023/07/02 07:23:25;;;;;;;28.77;13.38;;;;;;;;;;5088732;28;20036;-57
2023/07/02 07:25:51;;;;;;;27.30;12.10;;;;;;;;;;5093657;28;20396;-57
2023/07/02 07:28:17;;;;;;;29.27;14.20;;;;;;;;;;5086484;28;20035;-57
2023/07/02 07:30:43;;;;;;;23.27;12.02;;;;;;;;;;5092472;28;20028;-58
2023/07/02 07:33:10;;;;;;;31.17;13.02;;;;;;;;;;5093591;28;20119;-57
2023/07/02 07:35:36;;;;;;;27.70;13.98;;;;;;;;;;5093277;28;20034;-54
2023/07/02 07:38:02;;;;;;;26.05;12.35;;;;;;;;;;5093443;28;20480;-56
2023/07/02 07:40:28;;;;;;;23.55;13.20;;;;;;;;;;5093475;28;20039;-57
2023/07/02 07:42:54;;;;;;;27.67;13.10;;;;;;;;;;5089244;28;20028;-53
2023/07/02 07:45:20;;;;;;;27.00;12.90;;;;;;;;;;5088804;28;20545;-55
2023/07/02 07:47:46;;;;;;;26.30;13.85;;;;;;;;;;5092965;28;20068;-55
2023/07/02 07:50:13;;;;;;;23.35;13.18;;;;;;;;;;5093345;28;20095;-57
2023/07/02 07:52:39;;;;;;;25.98;13.98;;;;;;;;;;5093599;28;20032;-55
2023/07/02 07:55:06;;;;;;;22.40;12.25;;;;;;;;;;5093168;28;20031;-58
2023/07/02 07:57:32;;;;;;;22.63;12.00;;;;;;;;;;5093059;28;20099;-49
2023/07/02 07:59:58;;;;;;;23.23;12.88;;;;;;;;;;5092942;28;20526;-55
2023/07/02 08:02:24;;;;;;;23.17;12.93;;;;;;;;;;5074918;28;20036;-54
2023/07/02 08:04:50;;;;;;;23.85;12.25;;;;;;;;;;5092804;28;20404;-47
2023/07/02 08:07:16;;;;;;;24.33;12.52;;;;;;;;;;5093327;28;20137;-51
2023/07/02 08:09:42;;;;;;;26.98;14.18;;;;;;;;;;5084658;28;20479;-48
2023/07/02 08:12:08;;;;;;;25.38;12.40;;;;;;;;;;5093024;28;20612;-49
2023/07/02 08:14:37;;;;;;;23.63;13.27;;;;;;;;;;5092460;28;20054;-48
2023/07/02 08:17:03;;;;;;;23.67;12.45;;;;;;;;;;5092774;28;20399;-51
2023/07/02 08:19:31;;;;;;;24.08;13.25;;;;;;;;;;5092548;28;20619;-49
2023/07/02 08:21:56;;;;;;;23.85;12.32;;;;;;;;;;5074362;28;20081;-51
2023/07/02 08:24:22;;;;;;;23.02;13.13;;;;;;;;;;5092309;28;20465;-49
2023/07/02 08:26:49;;;;;;;24.45;14.23;;;;;;;;;;5092362;28;20089;-49
2023/07/02 08:29:16;;;;;;;26.02;13.75;;;;;;;;;;5092480;28;20099;-49
2023/07/02 08:31:43;;;;;;;23.98;13.73;;;;;;;;;;5092589;28;20022;-48
2023/07/02 08:34:09;;;;;;;23.20;13.90;;;;;;;;;;5092076;28;20047;-50
2023/07/02 08:36:35;;;;;;;22.10;14.02;;;;;;;;;;5092148;28;20434;-52
2023/07/02 08:39:01;;;;;;;22.65;14.40;;;;;;;;;;5074140;28;20020;-48
2023/07/02 08:41:27;;;;;;;21.00;14.23;;;;;;;;;;5092139;28;20020;-50
2023/07/02 08:43:55;;;;;;;22.60;15.02;;;;;;;;;;5090877;28;20228;-49
2023/07/02 08:46:21;;;;;;;24.95;15.18;;;;;;;;;;5090932;28;20024;-50
2023/07/02 08:48:48;;;;;;;23.90;14.23;;;;;;;;;;5092084;28;20024;-52
2023/07/02 08:51:14;;;;;;;25.55;14.60;;;;;;;;;;5092080;28;20024;-52
2023/07/02 08:53:40;;;;;;;25.23;14.75;;;;;;;;;;5092282;28;20498;-49
2023/07/02 08:56:06;;;;;;;25.58;14.35;;;;;;;;;;5092134;28;20024;-52
2023/07/02 08:58:32;;;;;;;26.52;15.35;;;;;;;;;;5091807;28;20476;-50
2023/07/02 09:01:07;;;;;;;21.92;14.05;;;;;;;;;;5092272;28;20070;-51
2023/07/02 09:03:33;;;;;;;26.67;15.50;;;;;;;;;;5073844;28;20036;-51
2023/07/02 09:05:59;;;;;;;19.90;13.00;;;;;;;;;;5091790;28;20404;-53
2023/07/02 09:08:25;;;;;;;23.90;14.23;;;;;;;;;;5091958;28;20522;-56
2023/07/02 09:10:51;;;;;;;21.38;13.68;;;;;;;;;;5092249;28;20095;-54
2023/07/02 09:13:17;;;;;;;23.17;14.07;;;;;;;;;;5092259;28;20060;-50
2023/07/02 09:15:43;;;;;;;22.08;15.35;;;;;;;;;;5073466;28;20024;-53
2023/07/02 09:18:16;;;;;;;24.67;14.57;;;;;;;;;;5073946;28;20035;-51
2023/07/02 09:20:42;;;;;;;19.83;14.30;;;;;;;;;;5091906;28;20400;-50
2023/07/02 09:23:08;;;;;;;25.40;15.13;;;;;;;;;;5091398;28;20034;-50
2023/07/02 09:25:38;;;;;;;23.85;15.57;;;;;;;;;;5073733;28;20020;-55
2023/07/02 09:28:22;;;;;;;23.30;15.18;;;;;;;;;;5091542;28;20497;-51
2023/07/02 09:30:51;;;;;;;22.05;14.68;;;;;;;;;;5091762;28;20365;-51
2023/07/02 09:33:17;;;;;;;22.98;15.40;;;;;;;;;;5091648;28;20095;-49
2023/07/02 09:35:44;;;;;;;23.00;14.32;;;;;;;;;;5091172;28;20396;-52
2023/07/02 09:38:10;;;;;;;25.13;14.93;;;;;;;;;;5073421;28;20461;-53
2023/07/02 09:40:40;;;;;;;22.55;14.52;;;;;;;;;;5091235;28;20028;-54
2023/07/02 09:43:06;;;;;;;19.67;13.38;;;;;;;;;;5091462;28;20042;-50
2023/07/02 09:45:32;;;;;;;23.02;14.25;;;;;;;;;;5091437;28;20020;-52
2023/07/02 09:47:59;;;;;;;26.50;13.48;;;;;;;;;;5091893;28;20028;-48
2023/07/02 09:50:25;;;;;;;26.52;15.32;;;;;;;;;;5091280;28;20031;-51
2023/07/02 09:52:51;;;;;;;22.15;15.02;;;;;;;;;;5091529;28;20016;-53
2023/07/02 09:55:17;;;;;;;27.40;15.30;;;;;;;;;;5073171;28;20024;-50
2023/07/02 09:57:44;;;;;;;23.15;15.68;;;;;;;;;;5091402;28;20491;-49
2023/07/02 10:00:11;;;;;;;22.08;15.02;;;;;;;;;;5073492;28;20028;-48
2023/07/02 10:02:38;;;;;;;24.02;15.20;;;;;;;;;;5091914;28;20028;-50
2023/07/02 10:05:04;;;;;;;21.75;15.90;;;;;;;;;;5091439;28;20116;-48
2023/07/02 10:07:32;;;;;;;23.83;15.75;;;;;;;;;;5091520;28;20053;-48
2023/07/02 10:09:58;;;;;;;22.83;15.02;;;;;;;;;;5073570;28;20119;-50
2023/07/02 10:12:25;;;;;;;26.30;15.57;;;;;;;;;;5073510;28;20046;-51
2023/07/02 10:14:52;;;;;;;29.00;15.65;;;;;;;;;;5091049;28;20039;-49
2023/07/02 10:17:24;;;;;;;29.38;15.88;;;;;;;;;;5073006;28;20016;-52
2023/07/02 10:19:51;;;;;;;24.17;16.27;;;;;;;;;;5091374;28;20065;-52
2023/07/02 10:22:17;;;;;;;22.88;14.93;;;;;;;;;;5091485;28;20043;-51
2023/07/02 10:24:52;;;;;;;26.63;15.30;;;;;;;;;;5090077;28;20460;-51
2023/07/02 10:27:18;;;;;;;25.00;15.15;;;;;;;;;;5084865;28;20040;-50
2023/07/02 10:29:53;;;;;;;24.63;14.85;;;;;;;;;;5090756;28;20145;-51
2023/07/02 10:32:28;;;;;;;25.83;14.07;;;;;;;;;;5082540;28;20027;-51
2023/07/02 10:34:55;;;;;;;23.58;14.52;;;;;;;;;;5094364;28;20028;-54
2023/07/02 10:37:21;;;;;;;25.60;15.70;;;;;;;;;;5094767;28;20028;-53
2023/07/02 10:39:47;;;;;;;24.60;14.38;;;;;;;;;;5086146;28;20396;-53
2023/07/02 10:42:13;;;;;;;22.77;14.38;;;;;;;;;;5091345;28;20035;-53
2023/07/02 10:44:52;;;;;;;24.35;14.95;;;;;;;;;;5074310;28;20035;-50
2023/07/02 10:47:18;;;;;;;23.30;14.85;;;;;;;;;;5089090;28;20073;-51
2023/07/02 10:49:44;;;;;;;21.15;14.75;;;;;;;;;;5094586;28;20020;-50
2023/07/02 10:52:10;;;;;;;23.25;15.55;;;;;;;;;;5072996;28;20016;-47
2023/07/02 10:54:40;;;;;;;21.38;14.23;;;;;;;;;;5082863;28;20036;-48
2023/07/02 10:57:07;;;;;;;21.60;14.73;;;;;;;;;;5087704;28;20142;-51
2023/07/02 10:59:33;;;;;;;21.70;14.05;;;;;;;;;;5094274;28;20035;-54
2023/07/02 11:02:02;;;;;;;21.60;14.02;;;;;;;;;;5075916;28;20021;-51
2023/07/02 11:04:28;;;;;;;22.63;15.55;;;;;;;;;;5094072;28;20034;-54
2023/07/02 11:06:55;;;;;;;23.85;14.63;;;;;;;;;;5076445;28;20115;-54
2023/07/02 11:09:21;;;;;;;20.05;13.52;;;;;;;;;;5094417;28;20024;-52
2023/07/02 11:12:05;;;;;;;22.13;13.15;;;;;;;;;;5076412;28;20509;-54
2023/07/02 11:14:35;;;;;;;23.10;14.20;;;;;;;;;;4741244;28;10000143;-53
2023/07/02 11:17:05;;;;;;;25.92;13.52;;;;;;;;;;5086186;28;20125;-51
2023/07/02 11:19:32;;;;;;;22.10;14.00;;;;;;;;;;5082041;28;20024;-56
2023/07/02 11:21:58;;;;;;;21.92;14.50;;;;;;;;;;5070520;28;20052;-51
2023/07/02 11:24:34;;;;;;;25.08;14.85;;;;;;;;;;5080919;28;20373;-50
2023/07/02 11:27:05;;;;;;;20.88;14.70;;;;;;;;;;5072394;28;20020;-50
2023/07/02 11:29:31;;;;;;;21.60;15.15;;;;;;;;;;5065476;28;20471;-55
2023/07/02 11:32:17;;;;;;;21.58;14.65;;;;;;;;;;5067710;28;20517;-55
2023/07/02 11:34:53;;;;;;;19.73;14.10;;;;;;;;;;5080561;28;20040;-55
2023/07/02 11:37:19;;;;;;;25.55;14.50;;;;;;;;;;5082256;28;20051;-52
2023/07/02 11:39:45;;;;;;;25.90;15.07;;;;;;;;;;5081984;28;20024;-52
2023/07/02 11:42:11;;;;;;;20.02;13.30;;;;;;;;;;5090056;28;20054;-53
2023/07/02 11:44:37;;;;;;;21.50;14.02;;;;;;;;;;5080952;28;20483;-53
2023/07/02 11:47:04;;;;;;;22.85;14.40;;;;;;;;;;5089847;28;20028;-55
2023/07/02 11:49:30;;;;;;;24.23;14.15;;;;;;;;;;5070875;28;20024;-56
2023/07/02 11:51:55;;;;;;;21.77;13.00;;;;;;;;;;5071455;28;20476;-54
2023/07/02 11:54:22;;;;;;;21.10;13.20;;;;;;;;;;5069707;28;20025;-53
2023/07/02 11:56:48;;;;;;;23.30;13.73;;;;;;;;;;5069791;28;20117;-52
2023/07/02 11:59:14;;;;;;;20.10;13.60;;;;;;;;;;5069506;28;20033;-55
2023/07/02 12:01:40;;;;;;;21.48;13.10;;;;;;;;;;5069776;28;20070;-55
2023/07/02 12:04:07;;;;;;;21.17;13.63;;;;;;;;;;5069521;28;20094;-51
2023/07/02 12:06:33;;;;;;;21.15;14.05;;;;;;;;;;5051739;28;20383;-50
2023/07/02 12:08:59;;;;;;;22.27;13.27;;;;;;;;;;5069510;28;20017;-52
2023/07/02 12:11:25;;;;;;;20.05;14.35;;;;;;;;;;5069660;28;20105;-50
2023/07/02 12:13:51;;;;;;;22.77;15.02;;;;;;;;;;5069300;28;20020;-57
2023/07/02 12:16:17;;;;;;;23.38;13.30;;;;;;;;;;5088336;28;20542;-54
2023/07/02 12:18:43;;;;;;;22.10;14.00;;;;;;;;;;5089708;28;20039;-53
2023/07/02 12:21:09;;;;;;;23.45;13.93;;;;;;;;;;5089536;28;20059;-51
2023/07/02 12:23:35;;;;;;;22.58;14.25;;;;;;;;;;5089277;28;20394;-53
2023/07/02 12:26:01;;;;;;;21.30;14.30;;;;;;;;;;5071104;28;20032;-55
2023/07/02 12:28:27;;;;;;;22.40;15.00;;;;;;;;;;5089484;28;20032;-51
2023/07/02 12:30:53;;;;;;;21.80;14.90;;;;;;;;;;5089683;28;20740;-54
2023/07/02 12:33:19;;;;;;;21.15;13.93;;;;;;;;;;5089567;28;20024;-51
2023/07/02 12:35:45;;;;;;;21.88;14.27;;;;;;;;;;5089668;28;20035;-51
2023/07/02 12:38:11;;;;;;;22.23;15.07;;;;;;;;;;5088366;28;20035;-53
2023/07/02 12:40:37;;;;;;;22.58;15.10;;;;;;;;;;5070672;28;20089;-52
2023/07/02 12:43:03;;;;;;;23.83;16.00;;;;;;;;;;5089021;28;20028;-52
2023/07/02 12:45:29;;;;;;;22.40;15.32;;;;;;;;;;5089063;28;20469;-50
2023/07/02 12:47:55;;;;;;;21.33;15.18;;;;;;;;;;5088627;28;20047;-51
2023/07/02 12:50:21;;;;;;;21.63;15.43;;;;;;;;;;5088184;28;20016;-49
2023/07/02 12:52:47;;;;;;;22.73;15.98;;;;;;;;;;5070826;28;20020;-51
2023/07/02 12:55:13;;;;;;;22.48;14.65;;;;;;;;;;5070553;28;20039;-53
2023/07/02 12:57:39;;;;;;;24.88;14.57;;;;;;;;;;5088454;28;20031;-53
2023/07/02 13:00:06;;;;;;;22.70;15.20;;;;;;;;;;5089542;28;20028;-55
2023/07/02 13:02:32;;;;;;;22.33;15.00;;;;;;;;;;5089332;28;20031;-51
2023/07/02 13:04:58;;;;;;;22.65;15.63;;;;;;;;;;5088590;28;20027;-49
2023/07/02 13:07:25;;;;;;;20.58;15.32;;;;;;;;;;5070588;28;20595;-55
2023/07/02 13:09:51;;;;;;;21.35;14.68;;;;;;;;;;5088879;28;20048;-55
2023/07/02 13:12:18;;;;;;;23.10;15.77;;;;;;;;;;5088905;28;20059;-53
2023/07/02 13:14:44;;;;;;;21.90;15.48;;;;;;;;;;5088119;28;20042;-52
2023/07/02 13:17:10;;;;;;;22.70;15.85;;;;;;;;;;5070448;28;20036;-56
2023/07/02 13:19:36;;;;;;;20.98;15.55;;;;;;;;;;5088784;28;20061;-52
2023/07/02 13:22:02;;;;;;;23.15;16.00;;;;;;;;;;5088860;28;20028;-53
2023/07/02 13:24:34;;;;;;;20.33;15.52;;;;;;;;;;5088329;28;20020;-56
2023/07/02 13:27:00;;;;;;;24.85;15.55;;;;;;;;;;5070252;28;20436;-52
2023/07/02 13:29:25;;;;;;;23.02;14.98;;;;;;;;;;5086789;28;20063;-55
2023/07/02 13:31:51;;;;;;;22.48;14.88;;;;;;;;;;5078118;28;20044;-50
2023/07/02 13:34:17;;;;;;;25.08;14.95;;;;;;;;;;5067543;28;20028;-50
2023/07/02 13:36:43;;;;;;;22.30;14.82;;;;;;;;;;5078835;28;20053;-52
2023/07/02 13:39:09;;;;;;;23.55;15.63;;;;;;;;;;5080944;28;20024;-53
2023/07/02 13:41:35;;;;;;;22.42;14.77;;;;;;;;;;5088437;28;20442;-52
2023/07/02 13:44:01;;;;;;;22.73;15.80;;;;;;;;;;5079351;28;20035;-50
2023/07/02 13:46:28;;;;;;;23.80;15.18;;;;;;;;;;5088154;28;20024;-51
2023/07/02 13:48:54;;;;;;;22.17;15.27;;;;;;;;;;5082183;28;20024;-51
2023/07/02 13:51:20;;;;;;;21.67;14.63;;;;;;;;;;5081938;28;20381;-52
2023/07/02 13:53:46;;;;;;;25.77;16.30;;;;;;;;;;5085977;28;20086;-50
2023/07/02 13:56:12;;;;;;;21.33;14.70;;;;;;;;;;5087756;28;20634;-53
2023/07/02 13:58:56;;;;;;;27.10;14.65;;;;;;;;;;5088303;28;20031;-51
2023/07/02 14:01:23;;;;;;;23.02;14.98;;;;;;;;;;5088335;28;20070;-52
2023/07/02 14:03:49;;;;;;;23.50;15.13;;;;;;;;;;5088105;28;20036;-52
2023/07/02 14:06:15;;;;;;;22.27;15.57;;;;;;;;;;5087921;28;20040;-52
2023/07/02 14:08:41;;;;;;;23.60;14.07;;;;;;;;;;5089717;28;20028;-52
2023/07/02 14:11:07;;;;;;;22.08;15.20;;;;;;;;;;5092024;28;20028;-55
2023/07/02 14:13:33;;;;;;;20.98;14.30;;;;;;;;;;5092136;28;20608;-49
2023/07/02 14:15:59;;;;;;;23.75;15.85;;;;;;;;;;5091761;28;20028;-51